Dixiana, South Carolina
Current Conditions -  °F | °C
As of 8:56 AM on Monday 26 Jan 2015 (Local Time) from KCAE Reporting Station
Few Clouds Few Clouds  
Wind Chill: 45°   Ceiling: Unl
Heat Index: 45°   Visibility: 10mi
Dew Point: 39°   Wind: 3mph
Humidity: 80%   Direction: 240°WSW
Pressure: 29.68"   Gusts: NA
Location:  33.9973°N, 81.0998°W
Report Text: KCAE 261356Z 24003KT 10SM FEW070 07/04 A2968 RMK AO2 SLP050 T00720039
Loading
Personal Weather Stations






























Interactive Weather Map New forecast layout! Learn more

10-Day Weather Forecast

Advertisements
Track Severe Weather on mobile